Stuart Place, Texas
Current Conditions -  °F | °C
As of 3:10 PM on Saturday 20 Dec 2014 (Local Time) from KHRL Reporting Station
Overcast Overcast  
Wind Chill: 59°   Ceiling: 8500
Heat Index: 59°   Visibility: 10mi
Dew Point: 54°   Wind: 14mph
Humidity: 82%   Direction: 10°N
Pressure: 30.1"   Gusts: NA
Location:  26.2089°N, 97.6849°W
Report Text: KHRL 202110Z 01012KT 10SM FEW013 SCT024 OVC085 15/12 A3010 RMK AO2
Loading
Personal Weather Stations






























Interactive Weather Map New forecast layout! Learn more

10-Day Weather Forecast

Advertisements
Track Severe Weather on mobile